Time,TemperatureF,DewpointF,PressureIn,WindDirection,WindDirectionDegrees,WindSpeedMPH,WindSpeedGustMPH,Humidity,HourlyPrecipIn,Conditions,Clouds,dailyrainin,SoftwareType,DateUTC
2013-03-22 00:00:00,36.0,-99.9,29.83,North,-999,-999.0,-999.0,-999,-99.99,,,-99.99,,2013-03-22 00:00:00,
2013-03-22 00:42:00,36.0,-99.9,29.83,North,-999,-999.0,-999.0,-999,-99.99,,,-99.99,,2013-03-22 00:42:00,
2013-03-22 00:53:00,36.0,-99.9,29.83,North,-999,-999.0,-999.0,-999,-99.99,,,-99.99,,2013-03-22 00:53:00,
2013-03-22 01:00:00,34.0,-99.9,29.83,North,-999,-999.0,-999.0,-999,-99.99,,,-99.99,,2013-03-22 01:00:00,
2013-03-22 01:43:00,34.0,-99.9,29.83,North,-999,-999.0,-999.0,-999,-99.99,,,-99.99,,2013-03-22 01:43:00,
2013-03-22 01:53:00,34.0,-99.9,29.83,North,-999,-999.0,-999.0,-999,-99.99,,,-99.99,,2013-03-22 01:53:00,
2013-03-22 06:00:00,35.0,35.0,29.75,North,-999,-999.0,-999.0,100,-99.99,,,-99.99,,2013-03-22 06:00:00,
2013-03-22 06:31:00,35.0,35.0,29.75,North,-999,-999.0,-999.0,100,-99.99,,,-99.99,,2013-03-22 06:31:00,
2013-03-22 06:41:00,35.0,35.0,29.75,North,-999,-999.0,-999.0,100,-99.99,,,-99.99,,2013-03-22 06:41:00,
2013-03-22 06:51:00,35.0,35.0,29.75,North,-999,-999.0,-999.0,100,-99.99,,,-99.99,,2013-03-22 06:51:00,
2013-03-22 07:00:00,37.0,-99.9,29.68,North,-999,-999.0,-999.0,-999,-99.99,,,-99.99,,2013-03-22 07:00:00,
2013-03-22 07:42:00,37.0,-99.9,29.68,North,-999,-999.0,-999.0,-999,-99.99,,,-99.99,,2013-03-22 07:42:00,
2013-03-22 07:52:00,37.0,-99.9,29.68,North,-999,-999.0,-999.0,-999,-99.99,,,-99.99,,2013-03-22 07:52:00,
2013-03-22 08:00:00,39.0,-99.9,29.61,North,-999,-999.0,-999.0,-999,-99.99,,,-99.99,,2013-03-22 08:00:00,
2013-03-22 08:32:00,39.0,-99.9,29.61,North,-999,-999.0,-999.0,-999,-99.99,,,-99.99,,2013-03-22 08:32:00,
2013-03-22 08:42:00,39.0,-99.9,29.61,North,-999,-999.0,-999.0,-999,-99.99,,,-99.99,,2013-03-22 08:42:00,
2013-03-22 08:52:00,39.0,-99.9,29.61,North,-999,-999.0,-999.0,-999,-99.99,,,-99.99,,2013-03-22 08:52:00,
2013-03-22 09:00:00,41.0,40.0,29.59,North,-999,-999.0,-999.0,98,-99.99,,,-99.99,,2013-03-22 09:00:00,
2013-03-22 09:42:00,41.0,40.0,29.59,North,-999,-999.0,-999.0,98,-99.99,,,-99.99,,2013-03-22 09:42:00,
2013-03-22 09:53:00,41.0,40.0,29.59,North,-999,-999.0,-999.0,98,-99.99,,,-99.99,,2013-03-22 09:53:00,
2013-03-22 10:00:00,42.0,42.0,29.57,North,-999,-999.0,-999.0,100,-99.99,,,-99.99,,2013-03-22 10:00:00,
2013-03-22 10:41:00,42.0,42.0,29.57,North,-999,-999.0,-999.0,100,-99.99,,,-99.99,,2013-03-22 10:41:00,
2013-03-22 10:52:00,42.0,42.0,29.57,North,-999,-999.0,-999.0,100,-99.99,,,-99.99,,2013-03-22 10:52:00,
2013-03-22 11:00:00,42.0,42.0,29.54,North,-999,-999.0,-999.0,100,-99.99,,,-99.99,,2013-03-22 11:00:00,
2013-03-22 11:41:00,42.0,42.0,29.54,North,-999,-999.0,-999.0,100,-99.99,,,-99.99,,2013-03-22 11:41:00,
2013-03-22 11:51:00,42.0,42.0,29.54,North,-999,-999.0,-999.0,100,-99.99,,,-99.99,,2013-03-22 11:51:00,
2013-03-22 12:00:00,41.0,41.0,29.54,North,-999,-999.0,-999.0,100,-99.99,,,-99.99,,2013-03-22 12:00:00,
2013-03-22 12:41:00,41.0,41.0,29.54,North,-999,-999.0,-999.0,100,-99.99,,,-99.99,,2013-03-22 12:41:00,
2013-03-22 12:51:00,41.0,41.0,29.54,North,-999,-999.0,-999.0,100,-99.99,,,-99.99,,2013-03-22 12:51:00,
2013-03-22 13:00:00,41.0,41.0,29.53,North,-999,-999.0,-999.0,100,-99.99,,,-99.99,,2013-03-22 13:00:00,
2013-03-22 13:41:00,41.0,41.0,29.53,North,-999,-999.0,-999.0,100,-99.99,,,-99.99,,2013-03-22 13:41:00,
2013-03-22 13:52:00,41.0,41.0,29.53,North,-999,-999.0,-999.0,100,-99.99,,,-99.99,,2013-03-22 13:52:00,
2013-03-22 14:00:00,41.0,41.0,29.51,North,-999,-999.0,-999.0,100,-99.99,,,-99.99,,2013-03-22 14:00:00,
2013-03-22 14:41:00,41.0,41.0,29.51,North,-999,-999.0,-999.0,100,-99.99,,,-99.99,,2013-03-22 14:41:00,
2013-03-22 14:51:00,41.0,41.0,29.51,North,-999,-999.0,-999.0,100,-99.99,,,-99.99,,2013-03-22 14:51:00,
2013-03-22 15:00:00,42.0,41.0,29.56,North,-999,-999.0,-999.0,97,-99.99,,,-99.99,,2013-03-22 15:00:00,
2013-03-22 15:42:00,42.0,41.0,29.56,North,-999,-999.0,-999.0,97,-99.99,,,-99.99,,2013-03-22 15:42:00,
2013-03-22 15:52:00,42.0,41.0,29.56,North,-999,-999.0,-999.0,97,-99.99,,,-99.99,,2013-03-22 15:52:00,
2013-03-22 16:00:00,42.0,40.0,29.49,North,-999,-999.0,-999.0,89,-99.99,,,-99.99,,2013-03-22 16:00:00,
2013-03-22 16:41:00,42.0,40.0,29.49,North,-999,-999.0,-999.0,89,-99.99,,,-99.99,,2013-03-22 16:41:00,
2013-03-22 16:52:00,42.0,40.0,29.49,North,-999,-999.0,-999.0,89,-99.99,,,-99.99,,2013-03-22 16:52:00,
2013-03-22 17:00:00,40.0,39.0,29.52,North,-999,-999.0,-999.0,97,-99.99,,,-99.99,,2013-03-22 17:00:00,
2013-03-22 17:41:00,40.0,39.0,29.52,North,-999,-999.0,-999.0,97,-99.99,,,-99.99,,2013-03-22 17:41:00,
2013-03-22 17:51:00,40.0,39.0,29.52,North,-999,-999.0,-999.0,97,-99.99,,,-99.99,,2013-03-22 17:51:00,
2013-03-22 18:00:00,39.0,39.0,29.56,North,-999,-999.0,-999.0,98,-99.99,,,-99.99,,2013-03-22 18:00:00,
2013-03-22 18:52:00,39.0,39.0,29.56,North,-999,-999.0,-999.0,98,-99.99,,,-99.99,,2013-03-22 18:52:00,
2013-03-22 19:00:00,39.0,38.0,29.57,North,-999,-999.0,-999.0,93,-99.99,,,-99.99,,2013-03-22 19:00:00,
2013-03-22 19:32:00,39.0,38.0,29.57,North,-999,-999.0,-999.0,93,-99.99,,,-99.99,,2013-03-22 19:32:00,
2013-03-22 19:41:00,39.0,38.0,29.57,North,-999,-999.0,-999.0,93,-99.99,,,-99.99,,2013-03-22 19:41:00,
2013-03-22 19:51:00,39.0,38.0,29.57,North,-999,-999.0,-999.0,93,-99.99,,,-99.99,,2013-03-22 19:51:00,
2013-03-22 20:00:00,38.0,38.0,29.58,North,-999,-999.0,-999.0,100,-99.99,,,-99.99,,2013-03-22 20:00:00,
2013-03-22 20:51:00,38.0,38.0,29.58,North,-999,-999.0,-999.0,100,-99.99,,,-99.99,,2013-03-22 20:51:00,
2013-03-22 21:00:00,37.0,37.0,29.65,North,-999,-999.0,-999.0,99,-99.99,,,-99.99,,2013-03-22 21:00:00,
2013-03-22 21:42:00,37.0,37.0,29.65,North,-999,-999.0,-999.0,99,-99.99,,,-99.99,,2013-03-22 21:42:00,
2013-03-22 21:52:00,37.0,37.0,29.65,North,-999,-999.0,-999.0,99,-99.99,,,-99.99,,2013-03-22 21:52:00,
2013-03-22 22:00:00,36.0,36.0,29.67,North,-999,-999.0,-999.0,100,-99.99,,,-99.99,,2013-03-22 22:00:00,
2013-03-22 22:41:00,36.0,36.0,29.67,North,-999,-999.0,-999.0,100,-99.99,,,-99.99,,2013-03-22 22:41:00,
2013-03-22 22:52:00,36.0,36.0,29.67,North,-999,-999.0,-999.0,100,-99.99,,,-99.99,,2013-03-22 22:52:00,
2013-03-22 23:00:00,36.0,36.0,29.70,North,-999,-999.0,-999.0,98,-99.99,,,-99.99,,2013-03-22 23:00:00,
2013-03-22 23:41:00,36.0,36.0,29.70,North,-999,-999.0,-999.0,98,-99.99,,,-99.99,,2013-03-22 23:41:00,
2013-03-22 23:51:00,36.0,36.0,29.70,North,-999,-999.0,-999.0,98,-99.99,,,-99.99,,2013-03-22 23:51:00,